Hartford, Vermont
Current Conditions -  °F | °C
As of 10:53 AM on Thursday 30 Oct 2014 (Local Time) from KLEB Reporting Station
Overcast Overcast  
Wind Chill: 49°   Ceiling: 3300
Heat Index: 49°   Visibility: 10mi
Dew Point: 41°   Wind: 3mph
Humidity: 74%   Direction: 300°WNW
Pressure: 29.94"   Gusts: NA
Location:  43.66°N, 72.34°W
Report Text: KLEB 301453Z 30003KT 10SM SCT024 BKN033 OVC075 09/05 A2994 RMK AO2 SLP140 T00940050 52003
Loading
Personal Weather Stations






























Interactive Weather Map
Tropical Storm Tracking
New forecast layout! Learn more

10-Day Weather Forecast

Advertisements
Track Severe Weather on mobile